Time;durP1;ratioP1;P1;durP2;ratioP2;P2;SDS_P1;SDS_P2;PMS_P1;PMS_P2;Temp;Humidity;BMP_temperature;BMP_pressure;BME280_temperature;BME280_humidity;BME280_pressure;Samples;Min_cycle;Max_cycle;Signal;HPM_P1;HPM_P2
2022/11/23 00:01:15;;;;;;;1.23;0.43;;;10.30;72.90;;;;;;5013356;28;20033;-74
2022/11/23 00:03:41;;;;;;;0.30;0.10;;;10.30;73.60;;;;;;5013174;28;20111;-74
2022/11/23 00:06:07;;;;;;;0.13;0.10;;;10.30;74.90;;;;;;5013152;28;20404;-74
2022/11/23 00:08:33;;;;;;;0.10;0.10;;;10.20;75.00;;;;;;5012966;28;20048;-74
2022/11/23 00:10:59;;;;;;;0.17;0.10;;;10.20;75.20;;;;;;5013226;28;20034;-74
2022/11/23 00:13:25;;;;;;;0.23;0.20;;;10.20;75.40;;;;;;5013262;28;20550;-73
2022/11/23 00:15:51;;;;;;;0.15;0.15;;;10.20;75.70;;;;;;5013274;28;20087;-74
2022/11/23 00:18:17;;;;;;;0.20;0.20;;;10.20;76.00;;;;;;5012794;28;20034;-71
2022/11/23 00:20:43;;;;;;;0.65;0.30;;;10.20;76.40;;;;;;5014153;28;20480;-71
2022/11/23 00:23:09;;;;;;;0.10;0.10;;;10.20;75.70;;;;;;5017532;28;20036;-74
2022/11/23 00:25:35;;;;;;;0.20;0.10;;;10.20;76.00;;;;;;5017099;28;20113;-74
2022/11/23 00:28:00;;;;;;;0.17;0.10;;;10.20;75.30;;;;;;5016982;28;20428;-73
2022/11/23 00:30:27;;;;;;;1.23;0.20;;;10.20;74.70;;;;;;5017220;28;20030;-74
2022/11/23 00:32:54;;;;;;;0.65;0.10;;;10.20;75.00;;;;;;5016539;28;20551;-74
2022/11/23 00:35:20;;;;;;;0.27;0.20;;;10.10;75.10;;;;;;5017080;28;20411;-73
2022/11/23 00:37:46;;;;;;;0.20;0.20;;;10.20;75.60;;;;;;5016802;28;20041;-74
2022/11/23 00:40:11;;;;;;;0.20;0.20;;;10.10;75.80;;;;;;5016700;28;20038;-74
2022/11/23 00:42:37;;;;;;;0.17;0.10;;;10.10;75.20;;;;;;5016534;28;20061;-74
2022/11/23 00:45:03;;;;;;;0.10;0.10;;;10.10;74.20;;;;;;5016961;28;20038;-74
2022/11/23 00:47:29;;;;;;;0.10;0.10;;;10.10;74.00;;;;;;5016693;28;20058;-74
2022/11/23 00:49:54;;;;;;;0.17;0.10;;;10.10;74.10;;;;;;5016710;28;20120;-73
2022/11/23 00:52:20;;;;;;;0.30;0.10;;;10.10;74.00;;;;;;5016458;28;20041;-73
2022/11/23 00:54:45;;;;;;;0.03;0.03;;;10.10;74.00;;;;;;5016456;28;20049;-73
2022/11/23 00:57:11;;;;;;;0.17;0.10;;;10.20;74.50;;;;;;5016529;28;20563;-71
2022/11/23 00:59:37;;;;;;;0.10;0.10;;;10.10;74.30;;;;;;5016437;28;20037;-72
2022/11/23 01:02:02;;;;;;;0.00;0.00;;;10.20;74.70;;;;;;5016759;28;20070;-71
2022/11/23 01:04:29;;;;;;;0.30;0.00;;;10.20;73.90;;;;;;5016182;28;20041;-71
2022/11/23 01:06:56;;;;;;;0.43;0.20;;;10.20;72.80;;;;;;5016273;28;20361;-71
2022/11/23 01:09:25;;;;;;;0.00;0.00;;;10.20;73.00;;;;;;5016274;28;20387;-72
2022/11/23 01:11:54;;;;;;;0.10;0.10;;;10.20;73.20;;;;;;5016203;28;20471;-73
2022/11/23 01:14:21;;;;;;;0.75;0.10;;;10.20;73.10;;;;;;5016187;28;20042;-73
2022/11/23 01:16:47;;;;;;;0.38;0.00;;;10.20;73.10;;;;;;5016066;28;20117;-74
2022/11/23 01:19:16;;;;;;;0.10;0.10;;;10.20;73.00;;;;;;5016144;28;20109;-74
2022/11/23 01:21:42;;;;;;;0.20;0.10;;;10.20;72.90;;;;;;5015784;28;20045;-74
2022/11/23 01:24:14;;;;;;;0.10;0.10;;;10.20;73.10;;;;;;5016141;28;20037;-73
2022/11/23 01:26:41;;;;;;;0.00;0.00;;;10.20;73.30;;;;;;5016312;28;20508;-74
2022/11/23 01:29:07;;;;;;;0.38;0.30;;;10.20;73.50;;;;;;5015650;28;20042;-74
2022/11/23 01:31:32;;;;;;;2.67;0.10;;;10.20;73.20;;;;;;5015506;28;20029;-74
2022/11/23 01:34:01;;;;;;;0.10;0.00;;;10.20;72.90;;;;;;5015723;28;20393;-74
2022/11/23 01:36:29;;;;;;;0.10;0.10;;;10.20;72.80;;;;;;5015644;28;20034;-71
2022/11/23 01:38:57;;;;;;;0.05;0.05;;;10.20;73.00;;;;;;5016019;28;20169;-74
2022/11/23 01:41:28;;;;;;;0.23;0.10;;;10.20;72.90;;;;;;5015510;28;20504;-74
2022/11/23 01:43:54;;;;;;;2.10;0.20;;;10.20;72.90;;;;;;5015552;28;20061;-74
2022/11/23 01:46:20;;;;;;;0.00;0.00;;;10.20;73.00;;;;;;5015602;28;20112;-74
2022/11/23 01:48:52;;;;;;;0.38;0.10;;;10.20;73.00;;;;;;5015489;28;20057;-74
2022/11/23 01:51:49;;;;;;;0.10;0.00;;;10.20;72.90;;;;;;5015476;28;20034;-73
2022/11/23 01:54:45;;;;;;;0.10;0.10;;;10.20;73.10;;;;;;4999754;28;20046;-74
2022/11/23 01:57:19;;;;;;;0.00;0.00;;;10.20;73.60;;;;;;5004965;28;20476;-73
2022/11/23 01:59:46;;;;;;;0.00;0.00;;;10.20;73.50;;;;;;5011909;28;20033;-74
2022/11/23 02:02:14;;;;;;;0.10;0.10;;;10.20;73.50;;;;;;5012519;28;20497;-74
2022/11/23 02:04:43;;;;;;;0.20;0.10;;;10.20;73.40;;;;;;5013500;28;20480;-74
2022/11/23 02:07:10;;;;;;;0.20;0.10;;;10.20;73.40;;;;;;5014722;28;20041;-74
2022/11/23 02:09:36;;;;;;;0.63;0.30;;;10.20;73.10;;;;;;5015025;28;20096;-74
2022/11/23 02:12:03;;;;;;;0.35;0.20;;;10.20;72.50;;;;;;5014932;28;20395;-74
2022/11/23 02:14:29;;;;;;;0.50;0.30;;;10.20;73.30;;;;;;5014628;28;20053;-74
2022/11/23 02:16:57;;;;;;;3.13;0.50;;;10.20;74.40;;;;;;5014842;28;20030;-74
2022/11/23 02:19:34;;;;;;;0.60;0.40;;;10.20;75.60;;;;;;5014844;28;20038;-73
2022/11/23 02:21:59;;;;;;;0.63;0.47;;;10.20;76.20;;;;;;5014438;28;20112;-74
2022/11/23 02:24:34;;;;;;;0.60;0.40;;;10.20;77.10;;;;;;5014923;28;20110;-73
2022/11/23 02:27:01;;;;;;;0.90;0.60;;;10.10;77.80;;;;;;5014713;28;20033;-75
2022/11/23 02:29:28;;;;;;;1.00;0.47;;;10.10;78.30;;;;;;5014521;28;20042;-74
2022/11/23 02:31:54;;;;;;;0.60;0.30;;;10.10;78.80;;;;;;5014733;28;20025;-74
2022/11/23 02:34:20;;;;;;;2.65;0.40;;;10.10;79.30;;;;;;5014400;28;20559;-74
2022/11/23 02:36:48;;;;;;;1.20;0.50;;;10.00;79.70;;;;;;5014318;28;20087;-74
2022/11/23 02:39:28;;;;;;;0.55;0.40;;;10.00;80.60;;;;;;5014352;28;20037;-73
2022/11/23 02:41:54;;;;;;;1.20;0.50;;;10.00;80.90;;;;;;5014526;28;20041;-73
2022/11/23 02:44:24;;;;;;;1.70;0.50;;;9.90;81.10;;;;;;5013503;28;20065;-73
2022/11/23 02:46:51;;;;;;;0.70;0.50;;;10.00;81.90;;;;;;5014244;28;20034;-73
2022/11/23 02:49:17;;;;;;;0.73;0.60;;;9.90;81.80;;;;;;5014387;28;20385;-74
2022/11/23 02:51:42;;;;;;;1.38;0.30;;;9.90;81.90;;;;;;5014214;28;20045;-74
2022/11/23 02:54:09;;;;;;;0.60;0.40;;;9.90;82.30;;;;;;5014264;28;20050;-74
2022/11/23 02:56:34;;;;;;;0.37;0.30;;;9.90;82.20;;;;;;5014416;28;20034;-74
2022/11/23 02:59:00;;;;;;;0.40;0.30;;;9.90;82.50;;;;;;5014118;28;20042;-74
2022/11/23 03:01:27;;;;;;;0.60;0.40;;;9.90;82.50;;;;;;5013845;28;20065;-73
2022/11/23 03:03:53;;;;;;;2.33;0.30;;;9.90;82.80;;;;;;5014081;28;20029;-75
2022/11/23 03:06:19;;;;;;;0.93;0.30;;;9.90;82.90;;;;;;5014492;28;20377;-73
2022/11/23 03:08:44;;;;;;;0.30;0.30;;;9.90;82.90;;;;;;5014191;28;20041;-73
2022/11/23 03:11:10;;;;;;;0.30;0.30;;;9.90;82.90;;;;;;5014080;28;20135;-74
2022/11/23 03:13:36;;;;;;;1.17;0.60;;;9.90;82.90;;;;;;5013975;28;20042;-74
2022/11/23 03:16:01;;;;;;;0.67;0.47;;;9.90;83.10;;;;;;5013689;28;20484;-73
2022/11/23 03:18:27;;;;;;;2.47;0.50;;;9.90;83.40;;;;;;5013702;28;20033;-73
2022/11/23 03:20:53;;;;;;;1.13;0.60;;;9.80;83.80;;;;;;5013955;28;20030;-74
2022/11/23 03:23:18;;;;;;;1.47;0.53;;;9.80;84.40;;;;;;5013887;28;20042;-74
2022/11/23 03:25:44;;;;;;;0.30;0.30;;;9.80;85.30;;;;;;4996047;28;20133;-73
2022/11/23 03:28:10;;;;;;;1.63;0.43;;;9.80;85.50;;;;;;5013521;28;20100;-73
2022/11/23 03:30:35;;;;;;;0.60;0.40;;;9.70;85.50;;;;;;5013686;28;20033;-73
2022/11/23 03:33:01;;;;;;;0.27;0.27;;;9.70;85.70;;;;;;5013505;28;20038;-73
2022/11/23 03:35:27;;;;;;;2.00;0.53;;;9.70;86.00;;;;;;5013634;28;20033;-73
2022/11/23 03:37:52;;;;;;;0.40;0.30;;;9.70;85.90;;;;;;5013398;28;20093;-73
2022/11/23 03:40:18;;;;;;;0.40;0.30;;;9.70;86.00;;;;;;5013547;28;20062;-74
2022/11/23 03:42:44;;;;;;;0.35;0.30;;;9.70;86.00;;;;;;5013464;28;20037;-73
2022/11/23 03:45:09;;;;;;;1.37;0.60;;;9.70;86.20;;;;;;5013404;28;20060;-74
2022/11/23 03:47:35;;;;;;;0.90;0.33;;;9.70;86.40;;;;;;5013082;28;20676;-73
2022/11/23 03:50:01;;;;;;;0.90;0.40;;;9.60;86.80;;;;;;5013164;28;20049;-74
2022/11/23 03:52:27;;;;;;;1.20;0.40;;;9.60;87.00;;;;;;5013204;28;20034;-74
2022/11/23 03:54:52;;;;;;;0.43;0.30;;;9.60;87.80;;;;;;5012898;28;20510;-73
2022/11/23 03:57:18;;;;;;;0.70;0.40;;;9.60;88.10;;;;;;5013207;28;20416;-73
2022/11/23 03:59:44;;;;;;;1.07;0.40;;;9.60;88.60;;;;;;5012956;28;20033;-73
2022/11/23 04:02:09;;;;;;;0.83;0.60;;;9.60;88.90;;;;;;5013445;28;20062;-73
2022/11/23 04:04:35;;;;;;;1.53;0.40;;;9.60;89.10;;;;;;5013308;28;20038;-73
2022/11/23 04:07:01;;;;;;;1.40;0.60;;;9.60;89.20;;;;;;5013113;28;20516;-73
2022/11/23 04:09:27;;;;;;;0.73;0.40;;;9.60;89.30;;;;;;5013203;28;20042;-73
2022/11/23 04:11:52;;;;;;;0.70;0.60;;;9.60;89.50;;;;;;5013128;28;20038;-73
2022/11/23 04:14:18;;;;;;;2.20;0.37;;;9.60;89.40;;;;;;5012985;28;20116;-74
2022/11/23 04:16:44;;;;;;;1.10;0.50;;;9.60;89.50;;;;;;5013256;28;20030;-74
2022/11/23 04:19:09;;;;;;;2.53;0.43;;;9.60;89.40;;;;;;5013096;28;20109;-73
2022/11/23 04:21:35;;;;;;;0.97;0.40;;;9.50;89.80;;;;;;5013133;28;20382;-73
2022/11/23 04:24:01;;;;;;;1.73;0.50;;;9.50;90.00;;;;;;5013455;28;20038;-73
2022/11/23 04:26:26;;;;;;;3.17;0.90;;;9.50;90.00;;;;;;5012957;28;20030;-73
2022/11/23 04:28:52;;;;;;;3.70;1.27;;;9.50;90.10;;;;;;5012981;28;20061;-74
2022/11/23 04:31:18;;;;;;;3.47;1.40;;;9.50;90.20;;;;;;5013015;28;20392;-73
2022/11/23 04:33:43;;;;;;;2.37;1.00;;;9.50;90.30;;;;;;5012830;28;20046;-73
2022/11/23 04:36:09;;;;;;;0.60;0.50;;;9.50;90.40;;;;;;5012975;28;20076;-73
2022/11/23 04:38:35;;;;;;;1.27;0.60;;;9.50;90.40;;;;;;5012845;28;20120;-74
2022/11/23 04:41:00;;;;;;;2.73;0.60;;;9.50;90.40;;;;;;5013050;28;20030;-74
2022/11/23 04:43:26;;;;;;;1.57;0.70;;;9.50;90.40;;;;;;5012901;28;20038;-73
2022/11/23 04:45:52;;;;;;;1.40;0.63;;;9.50;90.40;;;;;;5012550;28;20046;-73
2022/11/23 04:48:17;;;;;;;1.00;0.57;;;9.50;90.50;;;;;;5012657;28;20388;-73
2022/11/23 04:50:43;;;;;;;2.70;0.70;;;9.50;90.50;;;;;;5012816;28;20034;-74
2022/11/23 04:53:09;;;;;;;1.40;0.57;;;9.40;90.60;;;;;;5012814;28;20061;-73
2022/11/23 04:55:34;;;;;;;0.83;0.60;;;9.40;90.60;;;;;;5012806;28;20419;-73
2022/11/23 04:58:00;;;;;;;3.17;0.60;;;9.40;90.70;;;;;;5012896;28;20127;-73
2022/11/23 05:00:26;;;;;;;1.43;0.67;;;9.40;90.60;;;;;;5012600;28;20053;-74
2022/11/23 05:02:52;;;;;;;1.00;0.60;;;9.40;90.60;;;;;;5012518;28;20539;-74
2022/11/23 05:05:18;;;;;;;0.90;0.57;;;9.40;90.60;;;;;;5012618;28;20038;-73
2022/11/23 05:07:43;;;;;;;3.80;0.77;;;9.40;90.70;;;;;;5014985;28;20056;-74
2022/11/23 05:10:09;;;;;;;1.73;0.90;;;9.40;90.60;;;;;;5016238;28;20033;-73
2022/11/23 05:12:35;;;;;;;2.70;0.77;;;9.40;90.60;;;;;;5016405;28;20046;-73
2022/11/23 05:15:02;;;;;;;2.23;0.90;;;9.40;90.60;;;;;;5015907;28;20125;-74
2022/11/23 05:17:28;;;;;;;1.40;0.80;;;9.40;90.60;;;;;;5015909;28;20038;-73
2022/11/23 05:19:55;;;;;;;1.57;0.87;;;9.40;90.70;;;;;;5016344;28;20034;-73
2022/11/23 05:22:21;;;;;;;1.77;1.00;;;9.40;90.70;;;;;;5016025;28;20057;-73
2022/11/23 05:24:46;;;;;;;2.47;0.90;;;9.40;90.70;;;;;;5015996;28;20049;-73
2022/11/23 05:27:12;;;;;;;2.93;1.07;;;9.40;90.70;;;;;;5015957;28;20038;-75
2022/11/23 05:29:38;;;;;;;1.13;0.77;;;9.40;90.60;;;;;;5015651;28;20054;-74
2022/11/23 05:32:04;;;;;;;2.07;1.00;;;9.40;90.60;;;;;;5016249;28;20034;-73
2022/11/23 05:34:29;;;;;;;1.43;0.90;;;9.40;90.60;;;;;;5015952;28;20041;-74
2022/11/23 05:36:55;;;;;;;1.03;0.60;;;9.40;90.60;;;;;;5015843;28;20037;-73
2022/11/23 05:39:22;;;;;;;0.77;0.50;;;9.40;90.50;;;;;;5015942;28;20088;-73
2022/11/23 05:41:47;;;;;;;1.53;0.77;;;9.40;90.50;;;;;;5015329;28;20045;-73
2022/11/23 05:44:13;;;;;;;2.30;0.90;;;9.40;90.50;;;;;;5015507;28;20030;-73
2022/11/23 05:46:38;;;;;;;1.43;0.70;;;9.30;90.60;;;;;;5015706;28;20029;-71
2022/11/23 05:49:04;;;;;;;2.10;0.80;;;9.40;90.80;;;;;;5015373;28;20129;-74
2022/11/23 05:51:31;;;;;;;3.33;0.60;;;9.40;91.00;;;;;;5015420;28;20105;-74
2022/11/23 05:53:57;;;;;;;1.30;0.80;;;9.30;91.00;;;;;;5015396;28;20207;-74
2022/11/23 05:56:23;;;;;;;1.63;0.97;;;9.30;91.10;;;;;;5015287;28;20066;-71
2022/11/23 05:58:48;;;;;;;2.50;1.60;;;9.30;91.20;;;;;;5015382;28;20097;-70
2022/11/23 06:01:14;;;;;;;2.73;1.37;;;9.30;91.30;;;;;;5015220;28;20387;-71
2022/11/23 06:03:40;;;;;;;1.73;0.90;;;9.30;91.20;;;;;;5015127;28;20038;-71
2022/11/23 06:06:06;;;;;;;3.03;0.93;;;9.30;91.10;;;;;;5015000;28;20030;-71
2022/11/23 06:08:31;;;;;;;1.80;0.93;;;9.30;91.20;;;;;;5015204;28;20042;-71
2022/11/23 06:11:00;;;;;;;3.13;1.40;;;9.20;91.30;;;;;;5015011;28;20034;-72
2022/11/23 06:13:25;;;;;;;2.73;1.47;;;9.20;91.40;;;;;;5014675;28;20042;-74
2022/11/23 06:15:51;;;;;;;4.43;1.73;;;9.20;91.50;;;;;;5015309;28;20026;-73
2022/11/23 06:18:17;;;;;;;3.27;0.97;;;9.20;91.50;;;;;;4997360;28;20038;-73
2022/11/23 06:20:42;;;;;;;2.43;1.17;;;9.20;91.70;;;;;;5015190;28;20041;-73
2022/11/23 06:23:08;;;;;;;2.50;1.30;;;9.20;91.70;;;;;;5014744;28;20026;-74
2022/11/23 06:25:34;;;;;;;1.77;1.10;;;9.20;91.80;;;;;;5014704;28;20033;-74
2022/11/23 06:28:00;;;;;;;2.60;1.20;;;9.20;91.80;;;;;;5014498;28;20597;-74
2022/11/23 06:30:28;;;;;;;4.87;1.27;;;9.20;91.70;;;;;;5014605;28;20042;-74
2022/11/23 06:32:54;;;;;;;11.77;7.43;;;9.20;91.70;;;;;;5014817;28;20038;-73
2022/11/23 06:35:20;;;;;;;3.33;1.73;;;9.20;91.70;;;;;;5014510;28;20082;-73
2022/11/23 06:37:48;;;;;;;3.80;2.10;;;9.20;91.70;;;;;;5014724;28;20026;-73
2022/11/23 06:40:14;;;;;;;4.67;2.30;;;9.20;91.80;;;;;;5014164;28;20040;-73
2022/11/23 06:42:39;;;;;;;6.53;2.13;;;9.20;91.70;;;;;;5014433;28;20487;-73
2022/11/23 06:45:06;;;;;;;3.20;1.67;;;9.10;91.70;;;;;;5014641;28;20512;-73
2022/11/23 06:47:32;;;;;;;4.27;1.80;;;9.10;91.70;;;;;;5014561;28;20038;-73
2022/11/23 06:49:58;;;;;;;8.07;2.00;;;9.20;91.80;;;;;;5014469;28;20030;-73
2022/11/23 06:52:23;;;;;;;3.47;1.47;;;9.10;91.90;;;;;;5014031;28;20057;-74
2022/11/23 06:54:49;;;;;;;3.70;1.60;;;9.10;92.00;;;;;;5013967;28;20073;-74
2022/11/23 06:57:15;;;;;;;3.17;1.60;;;9.10;91.90;;;;;;5014087;28;20113;-73
2022/11/23 06:59:40;;;;;;;4.97;1.73;;;9.10;92.20;;;;;;5014127;28;20484;-73
2022/11/23 07:02:06;;;;;;;3.83;2.00;;;9.10;92.00;;;;;;5014239;28;20061;-73
2022/11/23 07:04:32;;;;;;;5.07;2.60;;;9.10;92.10;;;;;;5013468;28;20034;-73
2022/11/23 07:06:57;;;;;;;4.47;2.30;;;9.10;92.00;;;;;;5020611;28;20044;-73
2022/11/23 07:09:23;;;;;;;4.67;2.57;;;9.20;92.00;;;;;;5033278;28;20029;-74
2022/11/23 07:11:49;;;;;;;4.97;2.33;;;9.20;92.10;;;;;;5033857;28;21236;-73
2022/11/23 07:14:14;;;;;;;4.63;2.33;;;9.10;92.10;;;;;;5033202;28;20100;-74
2022/11/23 07:16:41;;;;;;;3.43;2.20;;;9.10;92.10;;;;;;5034070;28;20065;-73
2022/11/23 07:19:07;;;;;;;6.13;2.27;;;9.20;92.30;;;;;;5013666;28;20037;-73
2022/11/23 07:21:33;;;;;;;7.17;2.63;;;9.10;92.30;;;;;;4960339;28;20133;-77
2022/11/23 07:23:58;;;;;;;8.07;2.70;;;9.10;92.50;;;;;;4999643;28;20164;-73
2022/11/23 07:26:25;;;;;;;7.23;2.37;;;9.20;92.60;;;;;;5013851;28;20061;-74
2022/11/23 07:28:51;;;;;;;3.83;2.20;;;9.20;92.60;;;;;;5013212;28;20050;-73
2022/11/23 07:31:17;;;;;;;4.73;2.10;;;9.20;92.60;;;;;;5013240;28;20072;-74
2022/11/23 07:33:46;;;;;;;11.13;2.90;;;9.20;92.60;;;;;;5013235;28;20090;-73
2022/11/23 07:36:13;;;;;;;16.27;3.50;;;9.20;92.60;;;;;;5013197;28;20085;-73
2022/11/23 07:38:38;;;;;;;11.63;4.80;;;9.20;92.60;;;;;;5012933;28;20042;-74
2022/11/23 07:41:04;;;;;;;12.47;4.40;;;9.30;92.70;;;;;;5013188;28;20046;-73
2022/11/23 07:43:30;;;;;;;17.60;4.10;;;9.30;92.70;;;;;;5013070;28;20038;-73
2022/11/23 07:45:56;;;;;;;11.53;4.60;;;9.30;92.60;;;;;;5013180;28;20492;-74
2022/11/23 07:48:22;;;;;;;11.27;4.60;;;9.30;92.60;;;;;;5012917;28;20125;-73
2022/11/23 07:50:52;;;;;;;11.07;4.47;;;9.40;92.60;;;;;;5012942;28;20108;-76
2022/11/23 07:53:18;;;;;;;16.73;4.67;;;9.40;92.50;;;;;;5013147;28;20037;-74
2022/11/23 07:55:44;;;;;;;8.17;4.37;;;9.50;92.40;;;;;;5013427;28;20087;-73
2022/11/23 07:58:10;;;;;;;8.00;3.57;;;9.50;92.30;;;;;;5013537;28;20030;-74
2022/11/23 08:00:36;;;;;;;9.60;4.17;;;9.50;92.00;;;;;;5013187;28;20034;-74
2022/11/23 08:03:02;;;;;;;8.00;4.80;;;9.60;91.80;;;;;;5013339;28;20041;-74
2022/11/23 08:05:30;;;;;;;11.50;5.00;;;9.60;91.70;;;;;;5013074;28;20046;-74
2022/11/23 08:07:59;;;;;;;9.30;5.10;;;9.60;91.50;;;;;;5013290;28;20041;-74
2022/11/23 08:10:29;;;;;;;11.80;5.13;;;9.60;91.30;;;;;;5013585;28;20034;-74
2022/11/23 08:13:03;;;;;;;8.83;3.07;;;9.70;91.10;;;;;;5010492;28;20030;-73
2022/11/23 08:15:29;;;;;;;7.33;2.83;;;9.70;90.70;;;;;;5012782;28;20056;-74
2022/11/23 08:18:00;;;;;;;5.40;2.70;;;9.70;90.30;;;;;;5012848;28;20034;-73
2022/11/23 08:20:27;;;;;;;4.77;2.33;;;9.70;90.10;;;;;;5012075;28;20029;-73
2022/11/23 08:22:55;;;;;;;3.93;2.20;;;9.70;90.00;;;;;;5011953;28;20084;-71
2022/11/23 08:25:22;;;;;;;6.20;2.20;;;9.70;89.80;;;;;;5012245;28;20034;-70
2022/11/23 08:27:57;;;;;;;3.43;2.13;;;9.70;89.90;;;;;;5012279;28;20042;-71
2022/11/23 08:30:23;;;;;;;5.37;2.83;;;9.70;90.00;;;;;;5010183;28;20062;-73
2022/11/23 08:32:49;;;;;;;7.13;2.50;;;9.70;90.00;;;;;;4993317;28;20049;-74
2022/11/23 08:35:15;;;;;;;6.33;2.13;;;9.70;90.00;;;;;;5005106;28;20567;-74
2022/11/23 08:37:40;;;;;;;4.10;2.00;;;9.80;90.20;;;;;;5013122;28;20443;-73
2022/11/23 08:40:06;;;;;;;4.47;1.73;;;9.80;89.90;;;;;;5012848;28;20041;-74
2022/11/23 08:42:32;;;;;;;3.47;1.63;;;9.90;89.70;;;;;;5014999;28;20106;-74
2022/11/23 08:44:59;;;;;;;1.77;1.13;;;10.00;89.40;;;;;;5016535;28;20456;-74
2022/11/23 08:47:26;;;;;;;2.00;1.40;;;10.00;88.90;;;;;;5016407;28;20034;-74
2022/11/23 08:49:51;;;;;;;5.03;1.20;;;10.10;88.60;;;;;;5016152;28;20498;-74
2022/11/23 08:52:17;;;;;;;4.70;0.93;;;10.10;88.30;;;;;;5016267;28;20120;-74
2022/11/23 08:54:42;;;;;;;1.57;0.70;;;10.10;86.90;;;;;;5016584;28;20049;-74
2022/11/23 08:57:08;;;;;;;1.10;0.73;;;10.10;87.10;;;;;;5016400;28;20034;-74
2022/11/23 08:59:34;;;;;;;3.45;1.08;;;10.10;87.60;;;;;;5016612;28;20034;-74
2022/11/23 09:01:59;;;;;;;1.70;0.70;;;10.10;87.60;;;;;;5016423;28;20040;-74
2022/11/23 09:04:26;;;;;;;1.70;0.80;;;10.10;87.40;;;;;;5016308;28;20387;-74
2022/11/23 09:06:52;;;;;;;1.15;0.80;;;10.10;87.40;;;;;;5016112;28;20404;-73
2022/11/23 09:09:18;;;;;;;15.27;1.70;;;10.10;87.50;;;;;;5015954;28;20048;-73
2022/11/23 09:11:43;;;;;;;4.53;1.10;;;10.10;87.40;;;;;;5016074;28;20034;-73
2022/11/23 09:14:09;;;;;;;3.28;1.00;;;10.10;87.30;;;;;;5016075;28;20488;-73
2022/11/23 09:16:35;;;;;;;2.38;0.77;;;10.10;86.80;;;;;;5016360;28;20038;-73
2022/11/23 09:19:01;;;;;;;1.63;1.02;;;10.10;86.00;;;;;;5016165;28;20050;-73
2022/11/23 09:21:32;;;;;;;5.47;1.20;;;10.20;85.60;;;;;;5015940;28;20042;-74
2022/11/23 09:23:57;;;;;;;2.10;1.20;;;10.10;85.90;;;;;;5015920;28;20541;-73
2022/11/23 09:26:24;;;;;;;3.20;0.83;;;10.10;86.20;;;;;;5015947;28;20038;-73
2022/11/23 09:28:50;;;;;;;10.93;1.40;;;10.10;86.50;;;;;;5015736;28;20049;-74
2022/11/23 09:31:15;;;;;;;12.10;1.63;;;10.10;86.80;;;;;;5015446;28;20051;-74
2022/11/23 09:33:41;;;;;;;6.35;0.82;;;10.10;87.10;;;;;;5015375;28;20054;-74
2022/11/23 09:36:07;;;;;;;5.55;1.13;;;10.10;87.30;;;;;;5015697;28;20030;-74
2022/11/23 09:38:33;;;;;;;1.60;0.85;;;10.10;87.40;;;;;;5015585;28;20388;-73
2022/11/23 09:41:20;;;;;;;1.73;0.77;;;10.20;87.40;;;;;;5015700;28;20038;-74
2022/11/23 09:44:12;;;;;;;2.00;0.80;;;10.20;87.30;;;;;;5015444;28;20144;-74
2022/11/23 09:46:59;;;;;;;3.05;0.80;;;10.10;87.10;;;;;;5015670;28;20096;-72
2022/11/23 09:49:55;;;;;;;2.00;0.83;;;10.20;87.20;;;;;;5015581;28;20400;-74
2022/11/23 09:52:23;;;;;;;2.75;1.00;;;10.20;87.60;;;;;;5015290;28;20030;-74
2022/11/23 09:54:54;;;;;;;1.23;0.80;;;10.10;87.30;;;;;;5015695;28;20056;-74
2022/11/23 09:57:25;;;;;;;2.43;1.30;;;10.10;87.30;;;;;;5015276;28;20041;-73
2022/11/23 10:00:20;;;;;;;2.05;1.00;;;10.10;87.30;;;;;;5015328;28;20073;-73
2022/11/23 10:02:46;;;;;;;2.05;1.10;;;10.20;87.40;;;;;;5012715;28;20120;-75
2022/11/23 10:05:36;;;;;;;3.15;0.90;;;10.20;87.50;;;;;;5013973;28;20572;-74
2022/11/23 10:08:19;;;;;;;1.83;0.82;;;10.20;87.40;;;;;;5014902;28;20033;-73
2022/11/23 10:10:55;;;;;;;1.80;0.70;;;10.20;87.30;;;;;;5015018;28;20092;-73
2022/11/23 10:13:43;;;;;;;1.33;0.70;;;10.20;87.40;;;;;;5015152;28;20038;-73
2022/11/23 10:16:32;;;;;;;1.13;0.75;;;10.20;87.10;;;;;;5015102;28;20045;-73
2022/11/23 10:19:19;;;;;;;1.27;0.60;;;10.20;87.10;;;;;;5014829;28;20036;-73
2022/11/23 10:22:11;;;;;;;1.25;0.73;;;10.20;87.00;;;;;;5015136;28;20148;-73
2022/11/23 10:24:43;;;;;;;1.67;0.70;;;10.20;86.80;;;;;;5015197;28;20042;-74
2022/11/23 10:27:15;;;;;;;0.97;0.60;;;10.20;86.50;;;;;;5014833;28;20268;-73
2022/11/23 10:29:41;;;;;;;1.25;0.60;;;10.20;86.50;;;;;;5014976;28;20050;-73
2022/11/23 10:32:36;;;;;;;1.30;0.90;;;10.20;86.70;;;;;;5014931;28;20065;-74
2022/11/23 10:35:10;;;;;;;1.17;0.90;;;10.20;86.70;;;;;;5013835;28;20141;-73
2022/11/23 10:37:41;;;;;;;2.20;1.20;;;10.20;86.60;;;;;;5014709;28;20042;-73
2022/11/23 10:40:18;;;;;;;1.93;1.00;;;10.20;86.50;;;;;;5014748;28;20045;-73
2022/11/23 10:42:49;;;;;;;2.50;1.17;;;10.20;86.40;;;;;;5014763;28;20076;-73
2022/11/23 10:45:22;;;;;;;3.53;0.80;;;10.30;86.50;;;;;;5014471;28;20057;-73
2022/11/23 10:47:59;;;;;;;1.93;0.90;;;10.20;86.40;;;;;;5014314;28;20073;-73
2022/11/23 10:50:36;;;;;;;1.65;1.08;;;10.20;86.40;;;;;;5014179;28;20369;-73
2022/11/23 10:53:04;;;;;;;2.28;1.40;;;10.20;86.60;;;;;;5014356;28;20034;-73
2022/11/23 10:55:52;;;;;;;2.03;1.30;;;10.30;86.70;;;;;;5014409;28;20488;-73
2022/11/23 10:58:42;;;;;;;3.07;1.70;;;10.30;86.70;;;;;;5013961;28;20037;-73
2022/11/23 11:01:21;;;;;;;3.00;1.57;;;10.30;86.80;;;;;;5014282;28;20065;-74
2022/11/23 11:03:48;;;;;;;1.97;1.13;;;10.30;86.90;;;;;;5013615;28;20121;-74
2022/11/23 11:06:22;;;;;;;1.23;0.70;;;10.30;87.00;;;;;;5013739;28;20040;-71
2022/11/23 11:08:53;;;;;;;2.30;1.13;;;10.30;86.90;;;;;;5014464;28;20030;-73
2022/11/23 11:11:33;;;;;;;1.60;1.00;;;10.30;86.70;;;;;;5014006;28;20026;-73
2022/11/23 11:14:17;;;;;;;4.67;1.13;;;10.30;86.40;;;;;;5013876;28;20049;-74
2022/11/23 11:16:48;;;;;;;1.30;1.00;;;10.30;86.20;;;;;;5014095;28;20088;-73
2022/11/23 11:19:31;;;;;;;2.27;1.10;;;10.40;85.80;;;;;;5013867;28;20033;-74
2022/11/23 11:21:59;;;;;;;2.83;1.02;;;10.40;85.30;;;;;;5013830;28;20480;-73
2022/11/23 11:24:30;;;;;;;3.53;1.10;;;10.40;84.90;;;;;;5013780;28;20030;-73
2022/11/23 11:27:02;;;;;;;2.17;1.10;;;10.30;85.00;;;;;;5013855;28;20038;-74
2022/11/23 11:29:35;;;;;;;1.67;1.10;;;10.30;85.20;;;;;;5013695;28;20133;-73
2022/11/23 11:32:11;;;;;;;3.30;1.30;;;10.30;85.40;;;;;;5013561;28;20038;-74
2022/11/23 11:34:52;;;;;;;4.35;1.20;;;10.30;85.80;;;;;;5013561;28;20042;-73
2022/11/23 11:37:31;;;;;;;3.53;1.33;;;10.30;85.90;;;;;;5013594;28;20037;-74
2022/11/23 11:40:03;;;;;;;1.48;0.95;;;10.30;86.00;;;;;;5013376;28;20048;-74
2022/11/23 11:42:43;;;;;;;2.38;1.45;;;10.30;86.10;;;;;;5013556;28;20080;-73
2022/11/23 11:45:25;;;;;;;1.83;1.33;;;10.30;86.20;;;;;;5013356;28;20044;-74
2022/11/23 11:48:07;;;;;;;1.88;1.20;;;10.30;86.10;;;;;;5013620;28;20392;-73
2022/11/23 11:51:00;;;;;;;2.03;1.07;;;10.40;86.00;;;;;;5013533;28;20030;-73
2022/11/23 11:53:52;;;;;;;1.85;1.15;;;10.30;85.70;;;;;;5000286;28;20129;-74
2022/11/23 11:56:27;;;;;;;1.85;1.17;;;10.30;85.40;;;;;;4995853;28;20400;-74
2022/11/23 11:59:05;;;;;;;2.45;1.20;;;10.40;86.00;;;;;;5012280;28;20041;-74
2022/11/23 12:01:57;;;;;;;1.52;1.00;;;10.30;85.90;;;;;;5013447;28;20396;-73
2022/11/23 12:04:41;;;;;;;3.08;1.10;;;10.30;85.60;;;;;;5000499;28;20034;-74
2022/11/23 12:07:17;;;;;;;1.20;0.80;;;10.40;85.50;;;;;;5013132;28;20152;-74
2022/11/23 12:09:47;;;;;;;1.55;0.80;;;10.40;85.70;;;;;;5012320;28;20113;-73
2022/11/23 12:12:16;;;;;;;0.70;0.60;;;10.40;86.00;;;;;;5012420;28;20468;-73
2022/11/23 12:14:42;;;;;;;1.38;0.85;;;10.40;85.20;;;;;;5013096;28;20041;-73
2022/11/23 12:17:28;;;;;;;1.67;0.80;;;10.40;85.10;;;;;;5018816;28;20030;-74
2022/11/23 12:20:06;;;;;;;2.95;0.82;;;10.40;85.20;;;;;;5019118;28;20084;-73
2022/11/23 12:22:50;;;;;;;4.63;0.90;;;10.40;85.20;;;;;;5019596;28;20038;-73
2022/11/23 12:25:32;;;;;;;0.63;0.55;;;10.40;85.20;;;;;;5019622;28;20068;-73
2022/11/23 12:28:35;;;;;;;1.50;0.70;;;10.40;85.00;;;;;;5019487;28;20395;-73
2022/11/23 12:31:12;;;;;;;2.20;1.10;;;10.50;84.90;;;;;;5019515;28;20502;-74
2022/11/23 12:33:50;;;;;;;2.77;0.87;;;10.50;84.90;;;;;;5019288;28;20041;-73
2022/11/23 12:36:43;;;;;;;3.45;0.93;;;10.50;84.90;;;;;;5019448;28;20026;-74
2022/11/23 12:39:12;;;;;;;;;;;10.50;85.00;;;;;;5020042;28;20096;-71
2022/11/23 12:41:46;;;;;;;1.17;0.65;;;10.50;85.00;;;;;;5019599;28;19912;-73
2022/11/23 12:44:43;;;;;;;0.85;0.70;;;10.50;84.90;;;;;;5019421;28;20037;-74
2022/11/23 12:47:17;;;;;;;1.15;0.70;;;10.50;84.70;;;;;;4981586;28;20050;-74
2022/11/23 12:50:09;;;;;;;0.95;0.70;;;10.50;84.30;;;;;;5019112;28;20041;-73
2022/11/23 12:53:02;;;;;;;3.13;0.80;;;10.50;84.00;;;;;;5019095;28;20084;-74
2022/11/23 12:55:36;;;;;;;3.00;1.00;;;10.50;84.00;;;;;;5019076;28;20076;-74
2022/11/23 12:58:10;;;;;;;2.13;0.98;;;10.60;84.00;;;;;;5019121;28;20041;-73
2022/11/23 13:00:45;;;;;;;1.73;1.08;;;10.60;84.20;;;;;;5019506;28;20481;-74
2022/11/23 13:04:07;;;;;;;1.63;1.00;;;10.60;84.10;;;;;;5019331;28;20045;-73